Time;durP1;ratioP1;P1;durP2;ratioP2;P2;SDS_P1;SDS_P2;PMS_P1;PMS_P2;Temp;Humidity;BMP_temperature;BMP_pressure;BME280_temperature;BME280_humidity;BME280_pressure;Samples;Min_cycle;Max_cycle;Signal;HPM_P1;HPM_P2
2022/01/10 00:00:40;;;;;;;;;49.00;38.50;;;;;8.06;69.48;100931.94;6237047;22;45986;-81
2022/01/10 00:03:06;;;;;;;;;46.00;38.00;;;;;8.04;69.73;100933.75;6238963;22;45375;-81
2022/01/10 00:05:31;;;;;;;;;38.75;35.00;;;;;8.03;70.10;100939.84;6240743;22;45312;-82
2022/01/10 00:07:57;;;;;;;;;41.25;35.00;;;;;8.02;69.51;100940.78;6243638;22;45486;-86
2022/01/10 00:10:22;;;;;;;;;40.00;35.00;;;;;7.98;69.65;100937.34;6215252;22;48009;-82
2022/01/10 00:12:48;;;;;;;;;43.75;36.25;;;;;7.99;69.95;100946.91;6243476;22;45302;-80
2022/01/10 00:15:16;;;;;;;;;42.75;36.75;;;;;7.94;69.73;100940.91;6243726;22;45378;-79
2022/01/10 00:17:43;;;;;;;;;46.50;36.75;;;;;7.94;69.86;100938.28;6242652;22;45557;-76
2022/01/10 00:20:11;;;;;;;;;42.25;37.00;;;;;7.94;69.65;100954.00;6243228;22;45215;-76
2022/01/10 00:22:39;;;;;;;;;43.25;38.00;;;;;7.96;70.05;100956.56;6242161;22;45526;-83
2022/01/10 00:25:05;;;;;;;;;52.50;40.50;;;;;7.91;69.53;100954.03;6242790;22;45295;-78
2022/01/10 00:27:30;;;;;;;;;43.25;36.75;;;;;7.90;69.80;100967.16;6242444;22;45369;-78
2022/01/10 00:29:56;;;;;;;;;44.50;37.25;;;;;7.89;70.11;100976.78;6242962;22;45356;-78
2022/01/10 00:32:25;;;;;;;;;45.25;38.00;;;;;7.90;69.80;100970.66;6242525;22;45272;-78
2022/01/10 00:34:51;;;;;;;;;45.75;37.75;;;;;7.89;69.52;100979.38;6214739;22;45293;-78
2022/01/10 00:37:17;;;;;;;;;52.75;41.75;;;;;7.88;70.04;100981.13;6243388;22;45463;-78
2022/01/10 00:39:46;;;;;;;;;41.25;35.50;;;;;7.90;69.73;100988.09;6242847;22;45349;-80
2022/01/10 00:42:13;;;;;;;;;34.75;33.25;;;;;7.91;70.00;100985.44;6242704;22;45213;-81
2022/01/10 00:44:39;;;;;;;;;50.00;40.75;;;;;7.90;69.87;100994.22;6241463;22;45213;-81
2022/01/10 00:47:05;;;;;;;;;44.50;38.00;;;;;7.91;69.78;100989.81;6242505;22;45207;-79
2022/01/10 00:49:31;;;;;;;;;46.25;37.75;;;;;7.93;70.02;101002.00;6243479;22;45237;-79
2022/01/10 00:51:56;;;;;;;;;43.75;36.50;;;;;7.91;70.32;101000.28;6242806;22;45706;-79
2022/01/10 00:54:21;;;;;;;;;48.00;38.75;;;;;7.92;70.00;100997.66;6243460;22;45143;-80
2022/01/10 00:56:47;;;;;;;;;45.50;37.25;;;;;7.93;69.95;101001.13;6242132;22;45401;-80
2022/01/10 00:59:12;;;;;;;;;50.00;40.00;;;;;7.94;69.88;101001.09;6242751;22;45388;-78
2022/01/10 01:01:37;;;;;;;;;45.25;39.25;;;;;7.96;69.91;100998.44;6242376;22;45340;-78
2022/01/10 01:04:03;;;;;;;;;48.50;37.25;;;;;7.97;70.18;101005.44;6242538;22;45273;-78
2022/01/10 01:06:29;;;;;;;;;47.00;38.75;;;;;7.97;69.88;101005.44;6240623;22;45381;-83
2022/01/10 01:08:59;;;;;;;;;48.25;39.50;;;;;7.96;70.10;101009.78;6243047;22;45516;-88
2022/01/10 01:13:58;;;;;;;;;44.00;37.50;;;;;7.96;70.43;101004.56;6242374;22;45419;-78
2022/01/10 01:24:34;;;;;;;;;48.75;40.50;;;;;7.96;70.24;101035.09;6242033;22;45329;-82
2022/01/10 01:27:00;;;;;;;;;48.50;39.25;;;;;7.97;70.06;101048.19;6242044;22;45366;-83
2022/01/10 01:29:28;;;;;;;;;51.00;40.25;;;;;7.97;70.18;101050.81;6215080;22;48225;-85
2022/01/10 01:31:54;;;;;;;;;39.25;34.75;;;;;7.97;69.88;101056.03;6241886;22;45329;-81
2022/01/10 01:34:22;;;;;;;;;49.75;40.00;;;;;7.98;69.99;101059.50;6241971;22;45203;-82
2022/01/10 01:36:52;;;;;;;;;45.50;38.75;;;;;7.97;70.11;101063.03;6215278;22;46286;-82
2022/01/10 01:39:21;;;;;;;;;47.75;37.50;;;;;7.97;70.25;101068.25;6214838;22;47009;-83
2022/01/10 01:41:54;;;;;;;;;44.50;38.00;;;;;7.99;70.15;101079.56;6241643;22;46043;-82
2022/01/10 01:44:20;;;;;;;;;52.75;40.75;;;;;7.99;70.09;101085.66;6215064;22;45116;-82
2022/01/10 01:46:45;;;;;;;;;44.00;38.25;;;;;7.98;70.39;101090.91;6242314;22;45272;-83
2022/01/10 01:49:12;;;;;;;;;49.75;39.75;;;;;7.96;70.00;101088.31;6215272;22;46968;-85
2022/01/10 01:51:38;;;;;;;;;50.00;42.25;;;;;7.97;70.14;101083.97;6242010;22;45376;-84
2022/01/10 01:54:05;;;;;;;;;49.25;38.00;;;;;7.97;70.18;101090.06;6242507;22;45335;-84
2022/01/10 01:56:30;;;;;;;;;40.25;35.50;;;;;8.01;70.14;101098.72;6242318;22;45372;-81
2022/01/10 01:58:56;;;;;;;;;39.00;35.00;;;;;7.98;69.92;101097.00;6241965;22;46107;-82
2022/01/10 02:01:23;;;;;;;;;44.50;38.00;;;;;8.00;69.55;101099.59;6241184;22;45364;-82
2022/01/10 02:03:49;;;;;;;;;49.50;37.75;;;;;8.02;69.93;101108.31;6214517;22;45426;-82
2022/01/10 02:06:15;;;;;;;;;44.75;36.00;;;;;8.00;70.26;101112.69;6241624;22;45370;-82
2022/01/10 02:08:41;;;;;;;;;48.00;39.00;;;;;7.98;69.83;101106.63;6241732;22;45221;-80
2022/01/10 02:11:09;;;;;;;;;48.00;36.75;;;;;7.99;70.19;101097.88;6241987;22;45462;-81
2022/01/10 02:13:36;;;;;;;;;48.25;38.75;;;;;7.99;69.97;101106.59;6242306;22;45301;-79
2022/01/10 02:16:04;;;;;;;;;44.00;37.50;;;;;7.98;70.03;101109.22;6241860;22;45330;-81
2022/01/10 02:18:31;;;;;;;;;47.50;39.00;;;;;7.96;70.23;101109.25;6241812;22;45335;-80
2022/01/10 02:21:00;;;;;;;;;49.25;37.50;;;;;7.96;69.71;101104.03;6241271;22;45573;-80
2022/01/10 02:23:27;;;;;;;;;44.50;37.50;;;;;7.94;69.41;101105.81;6242721;22;45248;-80
2022/01/10 02:25:52;;;;;;;;;45.00;37.50;;;;;7.92;69.26;101115.44;6241627;22;45247;-80
2022/01/10 02:28:18;;;;;;;;;49.00;39.25;;;;;7.92;69.46;101114.56;6214495;22;46186;-80
2022/01/10 02:30:44;;;;;;;;;47.75;35.00;;;;;7.87;69.21;101112.91;6241478;22;45170;-80
2022/01/10 02:33:09;;;;;;;;;50.00;40.25;;;;;7.87;69.65;101115.53;6242694;22;45144;-81
2022/01/10 02:35:54;;;;;;;;;44.25;38.00;;;;;7.84;69.59;101117.31;6241686;22;45090;-81
2022/01/10 02:38:19;;;;;;;;;45.25;38.00;;;;;7.78;69.52;101115.63;6239012;22;47325;-81
2022/01/10 02:40:46;;;;;;;;;43.25;37.00;;;;;7.77;69.13;101124.41;6241778;22;45145;-82
2022/01/10 02:43:12;;;;;;;;;41.75;37.00;;;;;7.73;69.17;101127.94;6242325;22;45231;-83
2022/01/10 02:45:37;;;;;;;;;31.50;31.50;;;;;7.68;68.87;101116.69;6241093;22;45369;-82
2022/01/10 02:48:03;;;;;;;;;47.25;40.75;;;;;7.63;69.20;101120.22;6214258;22;46982;-83
2022/01/10 02:50:28;;;;;;;;;44.00;39.00;;;;;7.61;68.84;101123.75;6242164;22;45265;-87
2022/01/10 02:52:54;;;;;;;;;45.50;38.75;;;;;7.61;68.85;101142.06;6214712;22;45252;-87
2022/01/10 02:55:19;;;;;;;;;53.00;41.00;;;;;7.56;68.83;101146.47;6241738;22;45396;-85
2022/01/10 02:57:45;;;;;;;;;43.75;36.00;;;;;7.51;68.38;101143.94;6214118;22;47108;-85
2022/01/10 03:00:15;;;;;;;;;46.25;37.50;;;;;7.50;68.60;101150.94;6240941;22;45168;-85
2022/01/10 03:02:42;;;;;;;;;48.50;39.00;;;;;7.44;68.72;101153.63;6242121;22;45414;-85
2022/01/10 03:05:09;;;;;;;;;42.50;36.25;;;;;7.42;68.43;101166.72;6240509;22;45317;-85
2022/01/10 03:07:35;;;;;;;;;46.25;38.75;;;;;7.36;68.28;101158.94;6241549;22;45546;-83
2022/01/10 03:10:01;;;;;;;;;51.25;40.25;;;;;7.36;68.73;101169.41;6241352;22;45669;-82
2022/01/10 03:12:30;;;;;;;;;36.75;32.25;;;;;7.33;68.59;101172.06;6241545;22;45448;-82
2022/01/10 03:14:56;;;;;;;;;52.00;41.25;;;;;7.25;68.90;101166.94;6241469;22;45138;-81
2022/01/10 03:17:22;;;;;;;;;49.25;42.00;;;;;7.24;68.30;101175.66;6240917;22;46483;-83
2022/01/10 03:19:47;;;;;;;;;48.50;40.00;;;;;7.25;68.60;101189.59;6240778;22;45298;-86
2022/01/10 03:22:13;;;;;;;;;50.50;41.50;;;;;7.19;68.57;101186.16;6242222;22;45423;-84
2022/01/10 03:24:38;;;;;;;;;48.00;40.00;;;;;7.16;68.56;101190.56;6240494;22;45410;-83
2022/01/10 03:27:04;;;;;;;;;51.75;41.25;;;;;7.15;67.95;101191.44;6241434;22;45421;-85
2022/01/10 03:29:29;;;;;;;;;46.75;38.75;;;;;7.08;68.65;101188.91;6213598;22;45299;-84
2022/01/10 03:31:55;;;;;;;;;50.50;39.25;;;;;7.10;68.61;101207.19;6241708;22;45602;-84
2022/01/10 03:34:20;;;;;;;;;48.00;39.25;;;;;7.04;68.46;101195.03;6241656;22;45409;-84
2022/01/10 03:36:45;;;;;;;;;50.00;40.00;;;;;7.03;68.46;101195.94;6240972;22;45449;-82
2022/01/10 03:39:12;;;;;;;;;52.25;40.00;;;;;7.01;68.45;101207.28;6241854;22;45223;-82
2022/01/10 03:41:38;;;;;;;;;50.75;39.75;;;;;6.99;68.81;101207.28;6240757;22;45147;-82
2022/01/10 03:44:04;;;;;;;;;45.25;37.00;;;;;6.99;68.71;101212.50;6241103;22;45482;-80
2022/01/10 03:46:32;;;;;;;;;46.25;39.75;;;;;6.96;68.49;101205.56;6241200;22;45638;-80
2022/01/10 03:48:58;;;;;;;;;45.50;37.75;;;;;6.93;68.48;101205.63;6241559;22;45328;-80
2022/01/10 03:51:23;;;;;;;;;50.00;40.50;;;;;6.94;68.30;101212.56;6241308;22;45235;-81
2022/01/10 03:53:49;;;;;;;;;45.25;40.00;;;;;6.91;68.79;101215.22;6241376;22;45233;-82
2022/01/10 03:56:14;;;;;;;;;50.25;42.25;;;;;6.90;68.10;101220.44;6240849;22;45524;-81
2022/01/10 03:58:40;;;;;;;;;52.50;39.50;;;;;6.86;68.59;101224.88;6239369;22;45315;-81
2022/01/10 04:01:08;;;;;;;;;44.75;37.00;;;;;6.83;68.27;101224.88;6241368;22;45288;-82
2022/01/10 04:03:34;;;;;;;;;45.75;38.75;;;;;6.83;68.41;101230.97;6240917;22;45494;-82
2022/01/10 04:05:59;;;;;;;;;48.75;39.00;;;;;6.83;68.95;101235.34;6240064;22;45353;-82
2022/01/10 04:08:25;;;;;;;;;53.25;43.00;;;;;6.82;68.65;101241.44;6240306;22;45571;-85
2022/01/10 04:10:51;;;;;;;;;45.25;40.50;;;;;6.80;68.44;101248.41;6240713;22;45337;-87
2022/01/10 04:13:18;;;;;;;;;50.75;39.00;;;;;6.77;68.84;101243.22;6240533;22;45491;-88
2022/01/10 04:15:43;;;;;;;;;54.25;43.75;;;;;6.74;68.42;101247.59;6240894;22;45356;-89
2022/01/10 04:18:08;;;;;;;;;48.75;38.50;;;;;6.72;68.29;101248.47;6240585;22;45328;-88
2022/01/10 04:20:34;;;;;;;;;52.75;42.75;;;;;6.69;68.52;101251.97;6239596;22;45357;-82
2022/01/10 04:22:59;;;;;;;;;51.00;40.00;;;;;6.66;68.88;101259.88;6241546;22;45257;-81
2022/01/10 04:25:25;;;;;;;;;50.00;42.75;;;;;6.64;68.67;101257.25;6240352;22;45375;-81
2022/01/10 04:27:50;;;;;;;;;50.00;40.00;;;;;6.63;68.24;101257.28;6240417;22;45241;-82
2022/01/10 04:30:16;;;;;;;;;51.50;41.50;;;;;6.62;68.62;101258.13;6241497;22;45344;-82
2022/01/10 04:32:43;;;;;;;;;52.75;42.00;;;;;6.58;69.05;101262.53;6239475;22;45376;-81
2022/01/10 04:35:11;;;;;;;;;52.75;44.00;;;;;6.58;68.40;101264.28;6239948;22;45331;-81
2022/01/10 04:37:36;;;;;;;;;52.00;40.75;;;;;6.57;68.63;101273.00;6240797;22;45202;-81
2022/01/10 04:40:03;;;;;;;;;48.00;41.00;;;;;6.55;68.48;101278.22;6241072;22;45488;-81
2022/01/10 04:42:29;;;;;;;;;56.75;44.75;;;;;6.53;68.24;101285.22;6240545;22;45356;-82
2022/01/10 04:44:54;;;;;;;;;52.50;42.50;;;;;6.51;68.49;101292.19;6240533;22;46354;-81
2022/01/10 04:47:19;;;;;;;;;51.25;41.25;;;;;6.49;68.35;101300.03;6239722;22;45338;-78
2022/01/10 04:50:16;;;;;;;;;48.50;41.50;;;;;6.49;68.11;101300.03;6240975;22;45715;-78
2022/01/10 04:52:44;;;;;;;;;51.00;44.00;;;;;6.44;68.02;101307.03;6241538;22;45295;-83
2022/01/10 04:55:11;;;;;;;;;54.00;44.00;;;;;6.41;68.27;101307.94;6242890;22;46196;-78
2022/01/10 04:57:36;;;;;;;;;45.00;36.75;;;;;6.39;68.40;101312.31;6242715;22;45564;-79
2022/01/10 05:00:04;;;;;;;;;48.50;39.25;;;;;6.38;68.20;101328.81;6241346;22;45147;-79
2022/01/10 05:02:29;;;;;;;;;45.50;38.00;;;;;6.32;68.33;101322.78;6242070;22;45344;-81
2022/01/10 05:04:55;;;;;;;;;53.25;41.00;;;;;6.32;68.00;101333.22;6242095;22;45324;-81
2022/01/10 05:07:20;;;;;;;;;47.25;39.25;;;;;6.28;67.65;101332.34;6243329;22;45357;-81
2022/01/10 05:09:46;;;;;;;;;53.00;42.50;;;;;6.25;68.40;101334.97;6243395;22;45784;-81
2022/01/10 05:12:12;;;;;;;;;50.25;40.25;;;;;6.25;68.09;101338.47;6241870;22;45307;-80
2022/01/10 05:14:37;;;;;;;;;50.50;42.50;;;;;6.24;67.79;101351.53;6243039;22;46312;-81
2022/01/10 05:17:03;;;;;;;;;49.00;40.75;;;;;6.17;67.98;101348.94;6242395;22;45142;-80
2022/01/10 05:19:28;;;;;;;;;51.50;42.25;;;;;6.16;68.16;101344.63;6243394;22;45151;-84
2022/01/10 05:21:54;;;;;;;;;52.25;43.25;;;;;6.15;68.50;101348.09;6242298;22;45366;-83
2022/01/10 05:24:19;;;;;;;;;55.50;44.25;;;;;6.12;67.76;101344.63;6242661;22;45349;-83
2022/01/10 05:26:45;;;;;;;;;49.25;41.00;;;;;6.12;67.96;101349.84;6241619;22;45097;-84
2022/01/10 05:29:10;;;;;;;;;54.75;43.50;;;;;6.08;67.77;101356.81;6240524;22;45959;-84
2022/01/10 05:31:35;;;;;;;;;52.50;41.00;;;;;6.03;67.57;101359.41;6214144;22;47017;-80
2022/01/10 05:34:01;;;;;;;;;56.75;46.25;;;;;6.03;67.68;101362.03;6242800;22;45510;-83
2022/01/10 05:36:27;;;;;;;;;56.75;45.00;;;;;6.02;67.87;101369.88;6242849;22;45764;-83
2022/01/10 05:38:52;;;;;;;;;60.25;44.50;;;;;5.97;68.16;101369.88;6243431;22;45251;-80
2022/01/10 05:41:21;;;;;;;;;53.50;43.00;;;;;5.95;67.69;101372.47;6242120;22;45508;-80
2022/01/10 05:43:47;;;;;;;;;45.25;38.00;;;;;5.94;67.53;101380.31;6242228;22;45379;-80
2022/01/10 05:46:15;;;;;;;;;40.25;37.75;;;;;5.90;68.04;101376.00;6242247;22;45696;-80
2022/01/10 05:48:46;;;;;;;;;52.50;41.25;;;;;5.89;68.08;101388.16;6242616;22;45292;-80
2022/01/10 05:51:12;;;;;;;;;52.25;42.75;;;;;5.87;67.88;101389.03;6241679;22;45290;-80
2022/01/10 05:53:37;;;;;;;;;52.25;41.25;;;;;5.85;67.40;101389.91;6242123;22;46569;-80
2022/01/10 05:56:03;;;;;;;;;51.75;42.00;;;;;5.83;67.51;101398.59;6242407;22;45215;-80
2022/01/10 05:58:28;;;;;;;;;53.75;42.50;;;;;5.80;67.87;101412.53;6242511;22;45322;-80
2022/01/10 06:00:53;;;;;;;;;52.75;44.25;;;;;5.80;67.72;101428.19;6241566;22;45155;-81
2022/01/10 06:03:19;;;;;;;;;49.50;40.25;;;;;5.75;67.89;101432.56;6242109;22;45378;-81
2022/01/10 06:05:45;;;;;;;;;47.25;41.25;;;;;5.75;67.85;101440.41;6241850;22;45169;-78
2022/01/10 06:08:10;;;;;;;;;54.00;45.25;;;;;5.73;68.21;101436.88;6241900;22;45147;-78
2022/01/10 06:10:36;;;;;;;;;55.75;44.25;;;;;5.72;68.32;101443.00;6241645;22;45199;-80
2022/01/10 06:13:02;;;;;;;;;56.75;46.00;;;;;5.75;68.45;101450.81;6242091;22;45239;-79
2022/01/10 06:15:27;;;;;;;;;52.25;42.25;;;;;5.73;68.99;101449.94;6241695;22;45419;-79
2022/01/10 06:17:53;;;;;;;;;52.25;44.00;;;;;5.77;69.14;101467.34;6242917;22;45294;-79
2022/01/10 06:20:18;;;;;;;;;54.50;42.50;;;;;5.82;69.41;101478.66;6213614;22;46120;-84
2022/01/10 06:22:44;;;;;;;;;51.00;41.25;;;;;5.85;69.65;101470.78;6242453;22;45273;-83
2022/01/10 06:25:13;;;;;;;;;53.25;43.50;;;;;5.93;69.87;101491.66;6242304;22;45309;-83
2022/01/10 06:27:39;;;;;;;;;39.50;35.50;;;;;5.97;70.15;101492.53;6239942;22;45323;-79
2022/01/10 06:30:05;;;;;;;;;45.00;38.00;;;;;6.03;70.08;101500.34;6241105;22;45406;-78
2022/01/10 06:32:30;;;;;;;;;48.50;40.00;;;;;6.09;70.11;101504.72;6241742;22;45161;-78
2022/01/10 06:34:57;;;;;;;;;47.50;38.75;;;;;6.14;70.36;101496.88;6242211;22;45142;-78
2022/01/10 06:37:23;;;;;;;;;52.75;38.50;;;;;6.21;70.66;101509.06;6241883;22;45305;-78
2022/01/10 06:39:48;;;;;;;;;40.75;35.25;;;;;6.25;70.43;101504.69;6242090;22;45358;-81
2022/01/10 06:42:14;;;;;;;;;38.25;33.25;;;;;6.30;70.23;101510.75;6241217;22;45340;-81
2022/01/10 06:44:39;;;;;;;;;35.75;32.25;;;;;6.36;70.54;101515.09;6214078;22;45338;-81
2022/01/10 06:47:05;;;;;;;;;35.00;31.75;;;;;6.41;70.34;101522.06;6241994;22;45172;-82
2022/01/10 06:49:30;;;;;;;;;44.00;34.25;;;;;6.43;70.39;101529.88;6242208;22;45306;-82
2022/01/10 06:51:55;;;;;;;;;36.00;29.00;;;;;6.46;70.32;101537.72;6212977;22;47351;-79
2022/01/10 06:54:21;;;;;;;;;33.25;27.00;;;;;6.51;70.10;101548.16;6242096;22;45368;-79
2022/01/10 06:56:46;;;;;;;;;39.25;27.75;;;;;6.51;70.24;101551.63;6241288;22;45363;-80
2022/01/10 06:59:12;;;;;;;;;37.00;34.00;;;;;6.52;69.77;101555.97;6242046;22;45298;-80
2022/01/10 07:01:38;;;;;;;;;31.25;27.25;;;;;6.55;70.27;101560.31;6239903;22;45272;-79
2022/01/10 07:04:03;;;;;;;;;36.50;27.00;;;;;6.57;70.34;101570.78;6242325;22;45177;-80
2022/01/10 07:06:29;;;;;;;;;34.25;28.75;;;;;6.61;69.90;101578.59;6214296;22;45222;-81
2022/01/10 07:08:55;;;;;;;;;42.75;30.50;;;;;6.60;70.31;101589.91;6242121;22;45167;-81
2022/01/10 07:11:20;;;;;;;;;39.25;31.75;;;;;6.61;69.97;101590.78;6240933;22;46293;-81
2022/01/10 07:13:46;;;;;;;;;36.25;30.25;;;;;6.64;69.63;101602.09;6241468;22;45131;-81
2022/01/10 07:16:12;;;;;;;;;31.75;29.00;;;;;6.64;69.80;101607.31;6241003;22;45151;-80
2022/01/10 07:18:38;;;;;;;;;40.25;33.50;;;;;6.64;69.59;101606.47;6241829;22;45266;-80
2022/01/10 07:21:03;;;;;;;;;33.50;30.50;;;;;6.63;69.50;101613.44;6240678;22;46378;-80
2022/01/10 07:23:29;;;;;;;;;32.00;27.00;;;;;6.64;69.93;101622.16;6240083;22;45298;-80
2022/01/10 07:25:54;;;;;;;;;31.75;28.25;;;;;6.66;69.80;101629.97;6239928;22;45359;-80
2022/01/10 07:28:20;;;;;;;;;30.75;26.50;;;;;6.65;69.58;101634.31;6239729;22;45380;-78
2022/01/10 07:30:46;;;;;;;;;30.25;24.00;;;;;6.68;69.80;101643.88;6237951;22;45986;-77
2022/01/10 07:33:12;;;;;;;;;25.00;23.75;;;;;6.67;69.48;101650.84;6239679;22;45775;-76
2022/01/10 07:35:37;;;;;;;;;31.25;26.50;;;;;6.66;69.63;101654.34;6240306;22;45265;-77
2022/01/10 07:38:02;;;;;;;;;38.00;28.00;;;;;6.69;69.88;101666.53;6240950;22;45415;-77
2022/01/10 07:40:28;;;;;;;;;29.00;27.50;;;;;6.69;69.95;101677.84;6240383;22;46226;-77
2022/01/10 07:42:53;;;;;;;;;33.00;28.50;;;;;6.70;69.82;101683.94;6214201;22;45189;-77
2022/01/10 07:45:19;;;;;;;;;37.50;31.50;;;;;6.70;69.31;101692.66;6241321;22;45261;-78
2022/01/10 07:47:45;;;;;;;;;41.50;34.00;;;;;6.72;69.37;101703.97;6241762;22;45092;-78
2022/01/10 07:50:10;;;;;;;;;38.25;29.75;;;;;6.70;69.21;101692.66;6240830;22;45318;-77
2022/01/10 07:52:36;;;;;;;;;49.00;38.25;;;;;6.72;69.57;101701.38;6241464;22;45177;-77
2022/01/10 07:55:03;;;;;;;;;43.00;34.75;;;;;6.72;69.22;101718.78;6241243;22;45168;-77
2022/01/10 07:57:28;;;;;;;;;37.00;30.75;;;;;6.73;69.42;101726.63;6241614;22;45409;-77
2022/01/10 07:59:53;;;;;;;;;34.25;30.50;;;;;6.71;69.19;101733.59;6241760;22;45968;-78
2022/01/10 08:02:21;;;;;;;;;34.00;27.50;;;;;6.68;68.74;101733.59;6213566;22;45266;-77
2022/01/10 08:04:47;;;;;;;;;31.75;27.75;;;;;6.67;68.62;101736.22;6241854;22;45292;-78
2022/01/10 08:07:12;;;;;;;;;36.75;32.75;;;;;6.67;69.14;101739.69;6241368;22;45591;-78
2022/01/10 08:09:38;;;;;;;;;35.50;26.25;;;;;6.64;68.57;101758.00;6241511;22;45550;-78
2022/01/10 08:12:03;;;;;;;;;34.50;26.75;;;;;6.66;69.08;101765.81;6241023;22;45252;-78
2022/01/10 08:14:31;;;;;;;;;48.00;37.75;;;;;6.64;68.96;101766.69;6241754;22;45174;-78
2022/01/10 08:16:59;;;;;;;;;59.25;41.50;;;;;6.64;69.08;101763.22;6241284;22;45463;-78
2022/01/10 08:19:26;;;;;;;;;43.25;34.00;;;;;6.67;69.16;101768.44;6241024;22;45702;-77
2022/01/10 08:21:54;;;;;;;;;49.25;38.50;;;;;6.66;69.28;101765.81;6241425;22;45252;-77
2022/01/10 08:24:19;;;;;;;;;33.75;30.25;;;;;6.65;69.20;101762.34;6241438;22;45162;-77
2022/01/10 08:26:44;;;;;;;;;27.00;25.25;;;;;6.68;69.43;101758.84;6241259;22;45202;-77
2022/01/10 08:29:10;;;;;;;;;24.50;23.75;;;;;6.73;69.08;101762.34;6242484;22;46034;-77
2022/01/10 08:31:35;;;;;;;;;29.50;24.75;;;;;6.73;69.51;101773.66;6242595;22;45265;-77
2022/01/10 08:34:03;;;;;;;;;23.25;18.00;;;;;6.74;69.30;101785.84;6243583;22;45155;-77
2022/01/10 08:36:29;;;;;;;;;27.00;26.25;;;;;6.77;69.46;101791.94;6243249;22;45241;-77
2022/01/10 08:38:55;;;;;;;;;20.25;19.50;;;;;6.78;69.28;101791.09;6215461;22;47201;-77
2022/01/10 08:41:21;;;;;;;;;23.25;22.50;;;;;6.79;69.32;101803.28;6243192;22;45326;-77
2022/01/10 08:43:46;;;;;;;;;25.75;21.75;;;;;6.79;69.08;101803.28;6243386;22;45453;-78
2022/01/10 08:46:12;;;;;;;;;22.75;20.25;;;;;6.84;69.23;101802.41;6243159;22;45261;-78
2022/01/10 08:48:37;;;;;;;;;28.75;21.50;;;;;6.83;69.53;101800.66;6243366;22;45189;-77
2022/01/10 08:51:03;;;;;;;;;25.75;20.75;;;;;6.86;69.37;101811.09;6215898;22;45211;-78
2022/01/10 08:53:29;;;;;;;;;29.25;23.75;;;;;6.90;69.19;101818.94;6243328;22;45151;-77
2022/01/10 08:55:54;;;;;;;;;29.00;25.50;;;;;6.89;69.48;101810.22;6215372;22;45915;-78
2022/01/10 08:58:21;;;;;;;;;27.50;26.50;;;;;6.92;69.01;101820.69;6243087;22;46369;-78
2022/01/10 09:00:46;;;;;;;;;30.25;22.75;;;;;6.95;69.53;101825.94;6242462;22;45213;-78
2022/01/10 09:03:12;;;;;;;;;33.25;26.50;;;;;6.94;69.54;101837.25;6243082;22;45222;-78
2022/01/10 09:05:37;;;;;;;;;29.00;22.75;;;;;6.98;69.57;101843.34;6243066;22;45607;-78
2022/01/10 09:08:04;;;;;;;;;31.25;24.75;;;;;6.97;69.47;101845.09;6242923;22;46116;-77
2022/01/10 09:10:29;;;;;;;;;28.25;25.75;;;;;6.99;69.61;101852.94;6243227;22;45309;-77
2022/01/10 09:12:55;;;;;;;;;27.25;26.00;;;;;7.01;69.39;101850.34;6243552;22;45303;-77
2022/01/10 09:15:21;;;;;;;;;23.25;20.75;;;;;7.03;69.13;101859.03;6242202;22;45470;-77
2022/01/10 09:17:47;;;;;;;;;27.00;21.75;;;;;7.03;69.32;101864.28;6243132;22;45342;-77
2022/01/10 09:20:12;;;;;;;;;29.25;25.25;;;;;7.02;69.65;101863.41;6242636;22;45327;-78
2022/01/10 09:22:38;;;;;;;;;35.75;28.75;;;;;7.06;69.65;101862.50;6215921;22;45204;-77
2022/01/10 09:25:04;;;;;;;;;30.75;25.50;;;;;7.06;69.27;101865.13;6242630;22;45158;-78
2022/01/10 09:27:30;;;;;;;;;24.50;24.50;;;;;7.10;69.22;101866.00;6242507;22;45431;-77
2022/01/10 09:29:55;;;;;;;;;30.25;26.50;;;;;7.11;69.26;101866.91;6242957;22;45246;-77
2022/01/10 09:32:21;;;;;;;;;34.50;28.50;;;;;7.13;69.50;101868.63;6243119;22;45200;-77
2022/01/10 09:34:46;;;;;;;;;29.00;22.25;;;;;7.16;69.70;101883.44;6242200;22;45284;-78
2022/01/10 09:37:11;;;;;;;;;34.00;26.50;;;;;7.19;69.81;101888.66;6242484;22;45468;-78
2022/01/10 09:39:37;;;;;;;;;28.75;25.00;;;;;7.23;69.59;101902.63;6242584;22;45214;-78
2022/01/10 09:42:02;;;;;;;;;29.25;26.50;;;;;7.25;69.73;101896.53;6242853;22;45097;-78
2022/01/10 09:44:28;;;;;;;;;26.25;26.25;;;;;7.28;69.31;101900.88;6242521;22;45396;-79
2022/01/10 09:46:54;;;;;;;;;28.50;24.75;;;;;7.30;69.29;101905.25;6242114;22;45279;-80
2022/01/10 09:49:20;;;;;;;;;36.50;29.00;;;;;7.34;69.11;101908.72;6242608;22;45657;-78
2022/01/10 09:51:46;;;;;;;;;33.00;28.75;;;;;7.35;69.60;101917.44;6242901;22;45359;-78
2022/01/10 09:54:12;;;;;;;;;35.00;29.25;;;;;7.36;69.27;101919.19;6242461;22;45357;-78
2022/01/10 09:56:39;;;;;;;;;38.50;30.00;;;;;7.36;69.55;101925.28;6242756;22;46361;-78
2022/01/10 09:59:05;;;;;;;;;32.75;28.75;;;;;7.37;69.50;101927.03;6242853;22;45157;-78
2022/01/10 10:01:31;;;;;;;;;36.25;31.50;;;;;7.37;68.95;101934.88;6242422;22;45417;-78
2022/01/10 10:03:59;;;;;;;;;32.50;27.00;;;;;7.35;68.74;101934.00;6242637;22;45266;-78
2022/01/10 10:06:26;;;;;;;;;35.25;28.25;;;;;7.37;69.46;101939.22;6242316;22;45442;-78
2022/01/10 10:08:56;;;;;;;;;34.75;28.00;;;;;7.45;69.02;101954.94;6242785;22;45781;-78
2022/01/10 10:11:21;;;;;;;;;43.00;30.00;;;;;7.41;69.37;101944.47;6242098;22;45230;-78
2022/01/10 10:13:54;;;;;;;;;36.75;29.75;;;;;7.48;69.31;101952.31;6242447;22;45085;-78
2022/01/10 10:16:21;;;;;;;;;36.50;31.25;;;;;7.47;68.91;101950.56;6241944;22;46174;-78
2022/01/10 10:18:47;;;;;;;;;29.50;28.50;;;;;7.46;69.46;101952.31;6242415;22;45247;-78
2022/01/10 10:21:18;;;;;;;;;36.00;25.75;;;;;7.52;69.51;101961.91;6242124;22;45297;-78
2022/01/10 10:23:49;;;;;;;;;41.25;30.00;;;;;7.51;69.13;101960.16;6242329;22;45350;-78
2022/01/10 10:26:21;;;;;;;;;40.50;30.75;;;;;7.51;69.63;101954.91;6242112;22;46502;-78
2022/01/10 10:28:47;;;;;;;;;37.75;31.25;;;;;7.53;69.09;101963.66;6241996;22;45724;-78
2022/01/10 10:31:22;;;;;;;;;39.75;32.75;;;;;7.58;69.36;101971.50;6241961;22;45262;-78
2022/01/10 10:33:52;;;;;;;;;39.00;32.25;;;;;7.56;69.10;101968.88;6242637;22;45294;-78
2022/01/10 10:36:18;;;;;;;;;42.50;34.75;;;;;7.56;69.60;101962.75;6241738;22;45355;-79
2022/01/10 10:38:44;;;;;;;;;43.75;33.50;;;;;7.53;69.71;101964.50;6242345;22;45226;-79
2022/01/10 10:41:10;;;;;;;;;43.50;32.50;;;;;7.57;69.61;101965.41;6205474;22;45254;-78
2022/01/10 10:43:38;;;;;;;;;37.75;29.50;;;;;7.59;69.46;101979.34;6234174;22;45788;-81
2022/01/10 10:46:11;;;;;;;;;39.50;33.00;;;;;7.58;69.68;101976.75;6239977;22;45677;-78
2022/01/10 10:48:38;;;;;;;;;34.50;28.00;;;;;7.58;69.84;101974.97;6240745;22;45308;-78
2022/01/10 10:51:04;;;;;;;;;38.00;28.50;;;;;7.62;69.58;101991.56;6241550;22;45384;-78
2022/01/10 10:53:29;;;;;;;;;34.00;27.50;;;;;7.65;69.81;101984.56;6241557;22;45399;-78
2022/01/10 10:56:00;;;;;;;;;33.50;31.00;;;;;7.71;69.79;101993.28;6240715;22;45368;-78
2022/01/10 10:58:26;;;;;;;;;40.25;32.75;;;;;7.71;69.64;101988.94;6213050;22;45718;-78
2022/01/10 11:00:56;;;;;;;;;37.00;29.75;;;;;7.72;69.54;101984.56;6241298;22;45211;-78
2022/01/10 11:03:22;;;;;;;;;39.25;32.25;;;;;7.76;69.25;101994.16;6239010;22;45585;-78
2022/01/10 11:05:49;;;;;;;;;36.75;30.00;;;;;7.73;69.73;101986.31;6240665;22;46569;-78
2022/01/10 11:08:15;;;;;;;;;40.00;34.50;;;;;7.78;69.60;101995.03;6241625;22;45764;-78
2022/01/10 11:10:41;;;;;;;;;42.75;33.00;;;;;7.77;69.28;101993.28;6240848;22;45357;-78
2022/01/10 11:13:08;;;;;;;;;35.50;30.75;;;;;7.78;69.33;101995.03;6241329;22;45242;-78
2022/01/10 11:15:38;;;;;;;;;44.50;34.00;;;;;7.83;69.27;101997.63;6241549;22;46138;-78
2022/01/10 11:18:06;;;;;;;;;43.50;33.00;;;;;7.82;69.54;102001.13;6238454;22;45819;-77
2022/01/10 11:20:48;;;;;;;;;39.25;35.00;;;;;7.85;69.29;102011.63;6213530;22;45207;-78
2022/01/10 11:23:13;;;;;;;;;31.50;23.75;;;;;7.85;69.33;102011.63;6241062;22;45162;-78